YMA7562 RJOB-RKPC
Flight info
| Callsign | YMA7562 |
|---|---|
| Flight time | 1h 11m |
| Altitude | 32000 |
| Route | RJOB WASYU MARCO KATTA RJDC TAMNA RKPC |
| Aircraft | B738/M-VGDW/C |
Departure
| Time | 2026-04-30 09:16 |
|---|---|
| Airport | Okayama Momotaro Airport (RJOB) |
Arrival
| Time | 2026-04-30 10:27 |
|---|---|
| Airport | Jeju International Airport (RKPC) |
| Time | Latitude | Longitude | Altitude | Speed | Heading |
|---|---|---|---|---|---|
| 2026-04-30 09:00 | 34.75943 | 133.85324 | 810 ft | 0 kts | 329° |
| 2026-04-30 09:07 | 34.75929 | 133.85333 | 809 ft | 3 kts | 329° |
| 2026-04-30 09:07 | 34.75913 | 133.85345 | 808 ft | 2 kts | 326° |
| 2026-04-30 09:08 | 34.75903 | 133.85356 | 807 ft | 2 kts | 311° |
| 2026-04-30 09:08 | 34.75897 | 133.85367 | 807 ft | 1 kts | 294° |
| 2026-04-30 09:08 | 34.75894 | 133.85376 | 806 ft | 1 kts | 278° |
| 2026-04-30 09:08 | 34.75893 | 133.85387 | 806 ft | 1 kts | 263° |
| 2026-04-30 09:09 | 34.75895 | 133.85396 | 805 ft | 1 kts | 248° |
| 2026-04-30 09:09 | 34.75898 | 133.85405 | 805 ft | 1 kts | 240° |
| 2026-04-30 09:09 | 34.75899 | 133.85408 | 805 ft | 0 kts | 239° |
| 2026-04-30 09:11 | 34.75881 | 133.85381 | 806 ft | 12 kts | 212° |
| 2026-04-30 09:11 | 34.75769 | 133.85303 | 802 ft | 20 kts | 233° |
| 2026-04-30 09:11 | 34.75687 | 133.85139 | 800 ft | 27 kts | 238° |
| 2026-04-30 09:11 | 34.75563 | 133.84894 | 800 ft | 41 kts | 239° |
| 2026-04-30 09:12 | 34.75414 | 133.84576 | 804 ft | 32 kts | 240° |
| 2026-04-30 09:12 | 34.75302 | 133.84352 | 805 ft | 30 kts | 239° |
| 2026-04-30 09:12 | 34.75195 | 133.84135 | 798 ft | 19 kts | 238° |
| 2026-04-30 09:12 | 34.75078 | 133.84094 | 796 ft | 19 kts | 152° |
| 2026-04-30 09:13 | 34.75026 | 133.84189 | 800 ft | 12 kts | 60° |
| 2026-04-30 09:13 | 34.75042 | 133.84219 | 801 ft | 0 kts | 59° |
| 2026-04-30 09:15 | 34.75088 | 133.84311 | 805 ft | 43 kts | 59° |
| 2026-04-30 09:15 | 34.75387 | 133.84924 | 793 ft | 124 kts | 59° |
| 2026-04-30 09:16 | 34.75911 | 133.86008 | 1133 ft | 157 kts | 59° |
| 2026-04-30 09:16 | 34.76476 | 133.87024 | 2106 ft | 146 kts | 59° |
| 2026-04-30 09:16 | 34.77114 | 133.88123 | 2603 ft | 173 kts | 61° |
| 2026-04-30 09:16 | 34.77537 | 133.89523 | 3185 ft | 184 kts | 96° |
| 2026-04-30 09:17 | 34.77082 | 133.90920 | 3730 ft | 182 kts | 134° |
| 2026-04-30 09:17 | 34.75962 | 133.91600 | 4268 ft | 185 kts | 170° |
| 2026-04-30 09:17 | 34.74714 | 133.91231 | 4787 ft | 197 kts | 207° |
| 2026-04-30 09:17 | 34.73822 | 133.89874 | 5305 ft | 215 kts | 240° |
| 2026-04-30 09:18 | 34.73274 | 133.88167 | 5835 ft | 219 kts | 242° |
| 2026-04-30 09:18 | 34.72757 | 133.86452 | 6341 ft | 217 kts | 242° |
| 2026-04-30 09:18 | 34.72240 | 133.84735 | 6846 ft | 217 kts | 242° |
| 2026-04-30 09:18 | 34.71684 | 133.83046 | 7343 ft | 213 kts | 234° |
| 2026-04-30 09:19 | 34.70888 | 133.81538 | 7858 ft | 209 kts | 224° |
| 2026-04-30 09:19 | 34.69917 | 133.80232 | 8362 ft | 206 kts | 220° |
| 2026-04-30 09:19 | 34.68916 | 133.78972 | 8858 ft | 209 kts | 222° |
| 2026-04-30 09:19 | 34.67916 | 133.77705 | 9351 ft | 211 kts | 223° |
| 2026-04-30 09:20 | 34.66890 | 133.76416 | 9856 ft | 212 kts | 223° |
| 2026-04-30 09:20 | 34.65866 | 133.75171 | 10352 ft | 211 kts | 221° |
| 2026-04-30 09:20 | 34.64802 | 133.73917 | 10816 ft | 217 kts | 222° |
| 2026-04-30 09:20 | 34.63654 | 133.72595 | 11313 ft | 238 kts | 223° |
| 2026-04-30 09:21 | 34.62383 | 133.71176 | 11808 ft | 260 kts | 223° |
| 2026-04-30 09:21 | 34.61020 | 133.69583 | 12282 ft | 282 kts | 225° |
| 2026-04-30 09:21 | 34.59598 | 133.67822 | 12768 ft | 303 kts | 226° |
| 2026-04-30 09:21 | 34.58064 | 133.65924 | 13239 ft | 324 kts | 225° |
| 2026-04-30 09:22 | 34.56427 | 133.63916 | 13680 ft | 343 kts | 226° |
| 2026-04-30 09:22 | 34.54733 | 133.61855 | 14121 ft | 344 kts | 228° |
| 2026-04-30 09:22 | 34.53405 | 133.59468 | 14549 ft | 341 kts | 245° |
| 2026-04-30 09:22 | 34.52585 | 133.56804 | 14980 ft | 340 kts | 250° |
| 2026-04-30 09:23 | 34.51802 | 133.54092 | 15396 ft | 341 kts | 250° |
| 2026-04-30 09:23 | 34.51019 | 133.51392 | 15816 ft | 343 kts | 250° |
| 2026-04-30 09:23 | 34.50235 | 133.48685 | 16226 ft | 342 kts | 250° |
| 2026-04-30 09:23 | 34.49445 | 133.45955 | 16650 ft | 342 kts | 250° |
| 2026-04-30 09:24 | 34.48659 | 133.43225 | 17060 ft | 342 kts | 250° |
| 2026-04-30 09:24 | 34.47872 | 133.40518 | 17471 ft | 343 kts | 250° |
| 2026-04-30 09:24 | 34.47071 | 133.37782 | 17888 ft | 345 kts | 250° |
| 2026-04-30 09:24 | 34.46276 | 133.35053 | 18298 ft | 346 kts | 250° |
| 2026-04-30 09:25 | 34.45485 | 133.32289 | 18728 ft | 348 kts | 250° |
| 2026-04-30 09:25 | 34.44699 | 133.29538 | 19152 ft | 351 kts | 249° |
| 2026-04-30 09:25 | 34.43912 | 133.26727 | 19586 ft | 352 kts | 249° |
| 2026-04-30 09:25 | 34.43133 | 133.23955 | 20001 ft | 352 kts | 249° |
| 2026-04-30 09:26 | 34.42307 | 133.21164 | 20423 ft | 353 kts | 249° |
| 2026-04-30 09:26 | 34.41487 | 133.18338 | 20846 ft | 356 kts | 249° |
| 2026-04-30 09:26 | 34.40658 | 133.15540 | 21266 ft | 357 kts | 248° |
| 2026-04-30 09:26 | 34.39820 | 133.12730 | 21679 ft | 357 kts | 248° |
| 2026-04-30 09:27 | 34.38979 | 133.09901 | 22099 ft | 360 kts | 247° |
| 2026-04-30 09:27 | 34.38136 | 133.07011 | 22519 ft | 363 kts | 248° |
| 2026-04-30 09:27 | 34.37305 | 133.04181 | 22927 ft | 362 kts | 248° |
| 2026-04-30 09:27 | 34.36465 | 133.01283 | 23357 ft | 364 kts | 248° |
| 2026-04-30 09:28 | 34.35619 | 132.98422 | 23793 ft | 366 kts | 247° |
| 2026-04-30 09:28 | 34.34731 | 132.95520 | 24237 ft | 369 kts | 247° |
| 2026-04-30 09:28 | 34.33825 | 132.92593 | 24698 ft | 370 kts | 247° |
| 2026-04-30 09:28 | 34.32928 | 132.89676 | 25156 ft | 370 kts | 247° |
| 2026-04-30 09:29 | 34.32036 | 132.86772 | 25603 ft | 373 kts | 247° |
| 2026-04-30 09:29 | 34.31131 | 132.83818 | 26063 ft | 375 kts | 247° |
| 2026-04-30 09:29 | 34.30230 | 132.80868 | 26533 ft | 376 kts | 247° |
| 2026-04-30 09:29 | 34.29337 | 132.77918 | 26983 ft | 378 kts | 247° |
| 2026-04-30 09:30 | 34.28431 | 132.74933 | 27439 ft | 379 kts | 247° |
| 2026-04-30 09:30 | 34.27542 | 132.71974 | 27896 ft | 381 kts | 247° |
| 2026-04-30 09:30 | 34.26643 | 132.68959 | 28361 ft | 383 kts | 247° |
| 2026-04-30 09:30 | 34.25742 | 132.65935 | 28810 ft | 383 kts | 247° |
| 2026-04-30 09:31 | 34.24847 | 132.62906 | 29264 ft | 384 kts | 247° |
| 2026-04-30 09:31 | 34.23938 | 132.59853 | 29693 ft | 386 kts | 247° |
| 2026-04-30 09:31 | 34.23029 | 132.56825 | 30120 ft | 387 kts | 247° |
| 2026-04-30 09:31 | 34.22119 | 132.53773 | 30555 ft | 388 kts | 247° |
| 2026-04-30 09:32 | 34.21203 | 132.50717 | 30975 ft | 389 kts | 247° |
| 2026-04-30 09:32 | 34.20285 | 132.47620 | 31378 ft | 390 kts | 247° |
| 2026-04-30 09:32 | 34.18419 | 132.41441 | 31446 ft | 393 kts | 247° |
| 2026-04-30 09:33 | 34.16555 | 132.35290 | 31457 ft | 390 kts | 247° |
| 2026-04-30 09:33 | 34.14698 | 132.29173 | 31460 ft | 390 kts | 245° |
| 2026-04-30 09:34 | 34.12094 | 132.23494 | 31460 ft | 387 kts | 238° |
| 2026-04-30 09:34 | 34.09374 | 132.17879 | 31462 ft | 388 kts | 239° |
| 2026-04-30 09:35 | 34.07058 | 132.12108 | 31457 ft | 393 kts | 252° |
| 2026-04-30 09:35 | 34.06500 | 132.05543 | 31447 ft | 396 kts | 257° |
| 2026-04-30 09:36 | 34.05628 | 131.99083 | 31447 ft | 394 kts | 254° |
| 2026-04-30 09:36 | 34.04558 | 131.92682 | 31441 ft | 392 kts | 254° |
| 2026-04-30 09:37 | 34.03489 | 131.86241 | 31495 ft | 391 kts | 254° |
| 2026-04-30 09:37 | 34.02973 | 131.83063 | 31950 ft | 386 kts | 254° |
| 2026-04-30 09:37 | 34.02450 | 131.79895 | 31877 ft | 393 kts | 254° |
| 2026-04-30 09:38 | 34.01379 | 131.73503 | 31871 ft | 389 kts | 254° |
| 2026-04-30 09:38 | 34.00339 | 131.67105 | 31870 ft | 389 kts | 253° |
| 2026-04-30 09:39 | 33.99289 | 131.60757 | 31883 ft | 391 kts | 254° |
| 2026-04-30 09:39 | 33.98248 | 131.54388 | 31885 ft | 389 kts | 254° |
| 2026-04-30 09:40 | 33.97314 | 131.47978 | 31885 ft | 391 kts | 256° |
| 2026-04-30 09:40 | 33.96561 | 131.41495 | 31881 ft | 394 kts | 257° |
| 2026-04-30 09:41 | 33.95554 | 131.35181 | 31859 ft | 383 kts | 246° |
| 2026-04-30 09:41 | 33.93634 | 131.29205 | 31889 ft | 384 kts | 245° |
| 2026-04-30 09:42 | 33.92512 | 131.22966 | 31916 ft | 394 kts | 262° |
| 2026-04-30 09:42 | 33.92180 | 131.16432 | 31887 ft | 391 kts | 259° |
| 2026-04-30 09:43 | 33.91544 | 131.09938 | 31877 ft | 390 kts | 257° |
| 2026-04-30 09:43 | 33.90853 | 131.03488 | 31884 ft | 391 kts | 257° |
| 2026-04-30 09:44 | 33.90163 | 130.97035 | 31878 ft | 390 kts | 257° |
| 2026-04-30 09:44 | 33.89465 | 130.90599 | 31895 ft | 390 kts | 257° |
| 2026-04-30 09:45 | 33.88785 | 130.84151 | 31895 ft | 389 kts | 257° |
| 2026-04-30 09:45 | 33.88105 | 130.77687 | 31881 ft | 389 kts | 257° |
| 2026-04-30 09:46 | 33.87427 | 130.71277 | 31887 ft | 389 kts | 257° |
| 2026-04-30 09:46 | 33.86769 | 130.64856 | 31877 ft | 389 kts | 257° |
| 2026-04-30 09:47 | 33.86107 | 130.58472 | 31869 ft | 388 kts | 257° |
| 2026-04-30 09:47 | 33.85455 | 130.52217 | 31868 ft | 388 kts | 257° |
| 2026-04-30 09:48 | 33.84108 | 130.38979 | 31858 ft | 388 kts | 257° |
| 2026-04-30 09:49 | 33.83456 | 130.32585 | 31881 ft | 386 kts | 257° |
| 2026-04-30 09:49 | 33.82800 | 130.26201 | 31886 ft | 386 kts | 257° |
| 2026-04-30 09:50 | 33.82170 | 130.19806 | 31883 ft | 387 kts | 257° |
| 2026-04-30 09:50 | 33.81536 | 130.13391 | 31883 ft | 387 kts | 257° |
| 2026-04-30 09:51 | 33.80913 | 130.06984 | 31883 ft | 386 kts | 257° |
| 2026-04-30 09:51 | 33.80307 | 130.00612 | 31884 ft | 387 kts | 257° |
| 2026-04-30 09:52 | 33.79573 | 129.94241 | 31890 ft | 384 kts | 255° |
| 2026-04-30 09:52 | 33.78753 | 129.87952 | 31895 ft | 385 kts | 255° |
| 2026-04-30 09:53 | 33.77928 | 129.81612 | 31885 ft | 386 kts | 255° |
| 2026-04-30 09:53 | 33.77076 | 129.75255 | 31895 ft | 386 kts | 255° |
| 2026-04-30 09:54 | 33.76211 | 129.68944 | 31884 ft | 384 kts | 255° |
| 2026-04-30 09:54 | 33.75368 | 129.62640 | 31887 ft | 385 kts | 256° |
| 2026-04-30 09:55 | 33.74536 | 129.56280 | 31892 ft | 386 kts | 255° |
| 2026-04-30 09:55 | 33.73703 | 129.49963 | 31896 ft | 384 kts | 255° |
| 2026-04-30 09:56 | 33.72883 | 129.43674 | 31880 ft | 385 kts | 255° |
| 2026-04-30 09:56 | 33.72061 | 129.37329 | 31898 ft | 385 kts | 256° |
| 2026-04-30 09:57 | 33.71078 | 129.31050 | 31922 ft | 381 kts | 252° |
| 2026-04-30 09:57 | 33.69912 | 129.24889 | 31913 ft | 381 kts | 252° |
| 2026-04-30 09:58 | 33.68758 | 129.18713 | 31913 ft | 382 kts | 252° |
| 2026-04-30 09:58 | 33.67636 | 129.12511 | 31903 ft | 384 kts | 255° |
| 2026-04-30 09:59 | 33.66458 | 128.99721 | 31901 ft | 386 kts | 257° |
| 2026-04-30 10:00 | 33.65604 | 128.90193 | 31916 ft | 384 kts | 257° |
| 2026-04-30 10:01 | 33.64761 | 128.80600 | 31915 ft | 388 kts | 257° |
| 2026-04-30 10:02 | 33.63546 | 128.71144 | 31919 ft | 384 kts | 254° |
| 2026-04-30 10:02 | 33.62651 | 128.64870 | 31895 ft | 382 kts | 254° |
| 2026-04-30 10:03 | 33.61756 | 128.58580 | 31917 ft | 383 kts | 254° |
| 2026-04-30 10:03 | 33.60862 | 128.52290 | 31908 ft | 384 kts | 255° |
| 2026-04-30 10:04 | 33.59975 | 128.46133 | 31404 ft | 371 kts | 254° |
| 2026-04-30 10:04 | 33.59542 | 128.43086 | 29764 ft | 388 kts | 254° |
| 2026-04-30 10:04 | 33.59084 | 128.39960 | 28710 ft | 384 kts | 254° |
| 2026-04-30 10:04 | 33.58628 | 128.36870 | 28401 ft | 366 kts | 255° |
| 2026-04-30 10:05 | 33.58189 | 128.33891 | 27274 ft | 371 kts | 254° |
| 2026-04-30 10:05 | 33.57717 | 128.30901 | 26192 ft | 370 kts | 254° |
| 2026-04-30 10:05 | 33.57230 | 128.27928 | 25746 ft | 356 kts | 254° |
| 2026-04-30 10:05 | 33.56828 | 128.25040 | 24850 ft | 358 kts | 257° |
| 2026-04-30 10:06 | 33.56514 | 128.22082 | 23747 ft | 362 kts | 257° |
| 2026-04-30 10:06 | 33.56184 | 128.19135 | 23113 ft | 353 kts | 257° |
| 2026-04-30 10:06 | 33.55847 | 128.16273 | 22459 ft | 349 kts | 258° |
| 2026-04-30 10:06 | 33.55567 | 128.13364 | 21357 ft | 356 kts | 259° |
| 2026-04-30 10:07 | 33.55293 | 128.10471 | 20581 ft | 353 kts | 259° |
| 2026-04-30 10:07 | 33.55014 | 128.07564 | 19865 ft | 350 kts | 259° |
| 2026-04-30 10:07 | 33.54734 | 128.04684 | 18969 ft | 353 kts | 259° |
| 2026-04-30 10:07 | 33.54443 | 128.01788 | 18131 ft | 353 kts | 259° |
| 2026-04-30 10:08 | 33.54133 | 127.98861 | 17464 ft | 348 kts | 259° |
| 2026-04-30 10:08 | 33.53818 | 127.96019 | 16740 ft | 347 kts | 259° |
| 2026-04-30 10:08 | 33.53494 | 127.93185 | 15918 ft | 347 kts | 259° |
| 2026-04-30 10:08 | 33.53163 | 127.90359 | 15343 ft | 342 kts | 259° |
| 2026-04-30 10:09 | 33.52824 | 127.87563 | 14577 ft | 342 kts | 259° |
| 2026-04-30 10:09 | 33.52470 | 127.84744 | 13844 ft | 340 kts | 259° |
| 2026-04-30 10:09 | 33.52111 | 127.81993 | 13114 ft | 341 kts | 259° |
| 2026-04-30 10:09 | 33.51738 | 127.79205 | 12425 ft | 338 kts | 259° |
| 2026-04-30 10:10 | 33.51366 | 127.76446 | 11866 ft | 333 kts | 259° |
| 2026-04-30 10:10 | 33.51005 | 127.73707 | 11153 ft | 333 kts | 261° |
| 2026-04-30 10:10 | 33.50754 | 127.70935 | 10508 ft | 331 kts | 263° |
| 2026-04-30 10:10 | 33.50507 | 127.68186 | 10000 ft | 335 kts | 262° |
| 2026-04-30 10:11 | 33.50252 | 127.65434 | 9948 ft | 330 kts | 262° |
| 2026-04-30 10:11 | 33.50005 | 127.62735 | 9938 ft | 327 kts | 262° |
| 2026-04-30 10:11 | 33.49746 | 127.60033 | 9943 ft | 327 kts | 262° |
| 2026-04-30 10:11 | 33.49494 | 127.57336 | 9945 ft | 330 kts | 262° |
| 2026-04-30 10:12 | 33.49238 | 127.54621 | 9934 ft | 330 kts | 263° |
| 2026-04-30 10:12 | 33.48983 | 127.51901 | 9942 ft | 328 kts | 263° |
| 2026-04-30 10:12 | 33.48722 | 127.49160 | 9940 ft | 329 kts | 262° |
| 2026-04-30 10:12 | 33.48460 | 127.46471 | 9948 ft | 329 kts | 262° |
| 2026-04-30 10:13 | 33.48193 | 127.43720 | 9945 ft | 329 kts | 263° |
| 2026-04-30 10:13 | 33.47928 | 127.40996 | 9956 ft | 330 kts | 263° |
| 2026-04-30 10:13 | 33.47503 | 127.38309 | 9967 ft | 327 kts | 258° |
| 2026-04-30 10:13 | 33.47312 | 127.35689 | 9940 ft | 308 kts | 274° |
| 2026-04-30 10:14 | 33.47758 | 127.33266 | 9939 ft | 290 kts | 284° |
| 2026-04-30 10:14 | 33.48311 | 127.30974 | 9844 ft | 282 kts | 284° |
| 2026-04-30 10:14 | 33.49326 | 127.26405 | 8814 ft | 284 kts | 282° |
| 2026-04-30 10:15 | 33.49784 | 127.24126 | 8504 ft | 278 kts | 282° |
| 2026-04-30 10:15 | 33.50220 | 127.21890 | 7995 ft | 279 kts | 282° |
| 2026-04-30 10:15 | 33.50642 | 127.19631 | 7563 ft | 278 kts | 283° |
| 2026-04-30 10:15 | 33.51045 | 127.17401 | 7262 ft | 268 kts | 283° |
| 2026-04-30 10:16 | 33.51417 | 127.15236 | 6711 ft | 264 kts | 283° |
| 2026-04-30 10:16 | 33.51752 | 127.13185 | 6676 ft | 238 kts | 282° |
| 2026-04-30 10:16 | 33.52047 | 127.11317 | 6414 ft | 227 kts | 282° |
| 2026-04-30 10:17 | 33.52610 | 127.07575 | 5557 ft | 216 kts | 283° |
| 2026-04-30 10:17 | 33.53258 | 127.04030 | 4517 ft | 220 kts | 284° |
| 2026-04-30 10:17 | 33.53576 | 127.02244 | 4081 ft | 218 kts | 287° |
| 2026-04-30 10:18 | 33.53898 | 127.00507 | 3693 ft | 213 kts | 287° |
| 2026-04-30 10:18 | 33.54235 | 126.98759 | 3186 ft | 216 kts | 287° |
| 2026-04-30 10:18 | 33.54570 | 126.97028 | 2765 ft | 213 kts | 287° |
| 2026-04-30 10:19 | 33.55237 | 126.93630 | 1978 ft | 207 kts | 288° |
| 2026-04-30 10:19 | 33.55588 | 126.91996 | 1769 ft | 201 kts | 288° |
| 2026-04-30 10:19 | 33.55942 | 126.90346 | 1779 ft | 208 kts | 288° |
| 2026-04-30 10:19 | 33.56290 | 126.88661 | 1767 ft | 207 kts | 288° |
| 2026-04-30 10:20 | 33.56630 | 126.87013 | 1770 ft | 206 kts | 288° |
| 2026-04-30 10:20 | 33.57328 | 126.83669 | 1769 ft | 206 kts | 288° |
| 2026-04-30 10:20 | 33.57687 | 126.82003 | 1769 ft | 205 kts | 288° |
| 2026-04-30 10:21 | 33.58041 | 126.80356 | 1773 ft | 207 kts | 288° |
| 2026-04-30 10:21 | 33.58402 | 126.78677 | 1766 ft | 205 kts | 288° |
| 2026-04-30 10:21 | 33.58734 | 126.77112 | 1739 ft | 186 kts | 288° |
| 2026-04-30 10:21 | 33.59041 | 126.75637 | 1780 ft | 182 kts | 287° |
| 2026-04-30 10:22 | 33.59337 | 126.74133 | 1771 ft | 184 kts | 287° |
| 2026-04-30 10:22 | 33.59626 | 126.72636 | 1774 ft | 185 kts | 287° |
| 2026-04-30 10:22 | 33.59846 | 126.71493 | 1773 ft | 186 kts | 287° |
| 2026-04-30 10:22 | 33.60136 | 126.69981 | 1773 ft | 185 kts | 288° |
| 2026-04-30 10:23 | 33.60383 | 126.68454 | 1756 ft | 189 kts | 276° |
| 2026-04-30 10:23 | 33.60048 | 126.66908 | 1766 ft | 197 kts | 246° |
| 2026-04-30 10:23 | 33.59314 | 126.65514 | 1781 ft | 197 kts | 244° |
| 2026-04-30 10:23 | 33.58671 | 126.64070 | 1775 ft | 194 kts | 252° |
| 2026-04-30 10:24 | 33.58075 | 126.62597 | 1757 ft | 197 kts | 242° |
| 2026-04-30 10:24 | 33.57293 | 126.61317 | 1762 ft | 178 kts | 238° |
| 2026-04-30 10:24 | 33.56692 | 126.60094 | 1763 ft | 169 kts | 251° |
| 2026-04-30 10:24 | 33.56144 | 126.58794 | 1776 ft | 177 kts | 244° |
| 2026-04-30 10:25 | 33.55512 | 126.57550 | 1552 ft | 171 kts | 244° |
| 2026-04-30 10:25 | 33.54908 | 126.56380 | 1328 ft | 163 kts | 243° |
| 2026-04-30 10:25 | 33.54308 | 126.55208 | 1130 ft | 164 kts | 242° |
| 2026-04-30 10:25 | 33.53701 | 126.54029 | 922 ft | 168 kts | 242° |
| 2026-04-30 10:26 | 33.53080 | 126.52829 | 706 ft | 172 kts | 241° |
| 2026-04-30 10:26 | 33.52434 | 126.51576 | 474 ft | 183 kts | 240° |
| 2026-04-30 10:26 | 33.51756 | 126.50285 | 223 ft | 181 kts | 239° |
| 2026-04-30 10:26 | 33.51130 | 126.49073 | 73 ft | 159 kts | 239° |
| 2026-04-30 10:27 | 33.50677 | 126.48187 | 73 ft | 63 kts | 238° |
| 2026-04-30 10:27 | 33.50449 | 126.47939 | 85 ft | 20 kts | 199° |
| 2026-04-30 10:27 | 33.50406 | 126.48027 | 89 ft | 16 kts | 65° |
| 2026-04-30 10:27 | 33.50471 | 126.48164 | 85 ft | 21 kts | 59° |
| 2026-04-30 10:28 | 33.50561 | 126.48339 | 80 ft | 27 kts | 59° |
| 2026-04-30 10:28 | 33.50624 | 126.48477 | 79 ft | 17 kts | 82° |
| 2026-04-30 10:28 | 33.50541 | 126.48580 | 84 ft | 18 kts | 123° |
| 2026-04-30 10:28 | 33.50590 | 126.48736 | 83 ft | 19 kts | 58° |
| 2026-04-30 10:29 | 33.50615 | 126.48785 | 82 ft | 9 kts | 60° |
| 2026-04-30 10:29 | 33.50665 | 126.48882 | 81 ft | 13 kts | 58° |
| 2026-04-30 10:29 | 33.50715 | 126.48978 | 81 ft | 13 kts | 58° |
| 2026-04-30 10:29 | 33.50761 | 126.49068 | 81 ft | 12 kts | 60° |
| 2026-04-30 10:30 | 33.50804 | 126.49152 | 81 ft | 11 kts | 58° |
| 2026-04-30 10:30 | 33.50842 | 126.49226 | 83 ft | 9 kts | 58° |
| 2026-04-30 10:30 | 33.50870 | 126.49279 | 84 ft | 5 kts | 60° |
| 2026-04-30 10:30 | 33.50887 | 126.49318 | 84 ft | 5 kts | 73° |
| 2026-04-30 10:31 | 33.50883 | 126.49360 | 85 ft | 4 kts | 124° |
| 2026-04-30 10:31 | 33.50864 | 126.49373 | 86 ft | 1 kts | 160° |
| 2026-04-30 10:31 | 33.50833 | 126.49376 | 88 ft | 10 kts | 195° |
| 2026-04-30 10:31 | 33.50795 | 126.49377 | 89 ft | 4 kts | 177° |
| 2026-04-30 10:32 | 33.50785 | 126.49377 | 89 ft | 0 kts | 181° |